createdAt,value
2019-02-11T00:00:40.274Z,3.33
2019-02-11T00:03:11.213Z,3.23
2019-02-11T00:05:40.138Z,4.17
2019-02-11T00:08:11.502Z,3.83
2019-02-11T00:10:40.697Z,3.87
2019-02-11T00:13:11.010Z,3.77
2019-02-11T00:15:40.654Z,4.70
2019-02-11T00:18:10.491Z,7.07
2019-02-11T00:20:39.767Z,7.07
2019-02-11T00:23:09.567Z,7.53
2019-02-11T00:25:42.661Z,3.80
2019-02-11T00:28:12.315Z,6.53
2019-02-11T00:30:45.471Z,5.03
2019-02-11T00:33:14.383Z,4.90
2019-02-11T00:35:48.125Z,4.43
2019-02-11T00:38:17.997Z,2.53
2019-02-11T00:40:51.242Z,3.03
2019-02-11T00:43:20.809Z,4.70
2019-02-11T00:45:54.687Z,5.20
2019-02-11T00:48:24.262Z,3.00
2019-02-11T00:50:59.189Z,4.17
2019-02-11T00:53:28.353Z,4.73
2019-02-11T00:56:00.950Z,3.00
2019-02-11T00:58:31.412Z,3.20
2019-02-11T01:01:02.811Z,7.20
2019-02-11T01:03:32.372Z,4.43
2019-02-11T01:06:04.764Z,7.43
2019-02-11T01:08:33.685Z,2.70
2019-02-11T01:11:03.702Z,3.50
2019-02-11T01:13:33.582Z,3.33
2019-02-11T01:16:03.143Z,2.53
2019-02-11T01:18:32.737Z,2.77
2019-02-11T01:21:02.595Z,2.03
2019-02-11T01:23:32.158Z,4.10
2019-02-11T01:26:01.761Z,2.90
2019-02-11T01:28:31.627Z,3.87
2019-02-11T01:31:00.543Z,3.10
2019-02-11T01:33:30.106Z,3.57
2019-02-11T01:35:59.333Z,2.93
2019-02-11T01:38:28.901Z,4.30
2019-02-11T01:40:57.848Z,2.30
2019-02-11T01:43:35.778Z,2.87
2019-02-11T01:45:59.006Z,7.00
2019-02-11T01:48:30.030Z,3.73
2019-02-11T01:50:59.882Z,3.07
2019-02-11T01:53:32.226Z,6.33
2019-02-11T01:56:01.823Z,4.33
2019-02-11T01:58:34.461Z,4.30
2019-02-11T02:01:05.165Z,2.40
2019-02-11T02:03:37.096Z,7.27
2019-02-11T02:06:06.700Z,3.30
2019-02-11T02:08:39.845Z,2.40
2019-02-11T02:11:09.958Z,7.13
2019-02-11T02:13:44.778Z,4.40
2019-02-11T02:16:13.968Z,4.60
2019-02-11T02:18:45.333Z,7.17
2019-02-11T02:21:14.249Z,3.97
2019-02-11T02:23:49.778Z,9.03
2019-02-11T02:26:19.600Z,6.87
2019-02-11T02:28:51.965Z,9.67
2019-02-11T02:31:20.909Z,6.57
2019-02-11T02:33:56.823Z,6.77
2019-02-11T02:36:26.416Z,6.60
2019-02-11T02:38:58.948Z,10.13
2019-02-11T02:41:28.122Z,8.43
2019-02-11T02:44:00.808Z,9.93
2019-02-11T02:46:30.352Z,7.33
2019-02-11T02:49:03.259Z,9.60
2019-02-11T02:51:32.859Z,12.03
2019-02-11T02:54:05.766Z,11.23
2019-02-11T02:56:35.653Z,10.80
2019-02-11T02:59:10.971Z,17.63
2019-02-11T03:01:40.558Z,15.17
2019-02-11T03:04:13.134Z,18.70
2019-02-11T03:06:42.760Z,13.53
2019-02-11T03:09:15.105Z,13.97
2019-02-11T03:11:44.676Z,12.30
2019-02-11T03:14:16.906Z,13.60
2019-02-11T03:16:46.501Z,10.63
2019-02-11T03:19:22.034Z,14.87
2019-02-11T03:21:51.591Z,13.13
2019-02-11T03:24:23.567Z,12.60
2019-02-11T03:26:53.520Z,7.63
2019-02-11T03:29:24.801Z,10.87
2019-02-11T03:31:53.719Z,14.50
2019-02-11T03:34:29.086Z,16.87
2019-02-11T03:36:58.654Z,12.17
2019-02-11T03:39:31.005Z,10.13
2019-02-11T03:42:00.913Z,12.87
2019-02-11T03:44:33.410Z,15.50
2019-02-11T03:47:03.014Z,9.60
2019-02-11T03:49:34.954Z,10.40
2019-02-11T03:52:04.547Z,9.33
2019-02-11T03:54:36.762Z,11.63
2019-02-11T03:57:06.350Z,6.87
2019-02-11T03:59:40.549Z,9.63
2019-02-11T04:02:11.526Z,14.67
2019-02-11T04:04:41.690Z,5.43
2019-02-11T04:07:10.605Z,9.50
2019-02-11T04:09:44.566Z,11.53
2019-02-11T04:12:13.478Z,10.80
2019-02-11T04:14:47.444Z,18.97
2019-02-11T04:17:17.021Z,11.03
2019-02-11T04:19:54.062Z,13.77
2019-02-11T04:22:23.660Z,10.57
2019-02-11T04:24:54.320Z,8.07
2019-02-11T04:27:23.538Z,11.97
2019-02-11T04:29:56.825Z,14.53
2019-02-11T04:32:26.413Z,11.93
2019-02-11T04:35:00.347Z,9.90
2019-02-11T04:37:29.979Z,12.70
2019-02-11T04:40:03.394Z,10.50
2019-02-11T04:42:32.992Z,15.70
2019-02-11T04:45:07.776Z,15.43
2019-02-11T04:47:37.014Z,8.77
2019-02-11T04:50:12.906Z,17.43
2019-02-11T04:52:42.542Z,14.00
2019-02-11T04:55:15.158Z,13.27
2019-02-11T04:57:44.743Z,11.13
2019-02-11T05:00:15.200Z,15.10
2019-02-11T05:02:44.785Z,14.13
2019-02-11T05:05:16.842Z,14.37
2019-02-11T05:07:46.758Z,11.97
2019-02-11T05:12:56.460Z,14.13
2019-02-11T05:15:26.114Z,13.43
2019-02-11T05:17:55.890Z,11.27
2019-02-11T05:20:28.958Z,13.43
2019-02-11T05:22:58.619Z,11.57
2019-02-11T05:25:30.706Z,9.03
2019-02-11T05:28:00.598Z,11.03
2019-02-11T05:30:34.177Z,12.03
2019-02-11T05:33:04.080Z,11.00
2019-02-11T05:35:37.139Z,10.07
2019-02-11T05:38:06.751Z,14.07
2019-02-11T05:40:39.805Z,16.83
2019-02-11T05:43:08.819Z,14.17
2019-02-11T05:45:43.965Z,10.40
2019-02-11T05:48:13.821Z,12.40
2019-02-11T05:50:46.478Z,14.77
2019-02-11T05:53:16.118Z,14.90
2019-02-11T05:55:49.141Z,13.33
2019-02-11T05:58:18.768Z,13.60
2019-02-11T06:00:51.324Z,12.20
2019-02-11T06:03:20.250Z,9.63
2019-02-11T06:05:54.851Z,12.87
2019-02-11T06:08:25.117Z,18.27
2019-02-11T06:10:56.393Z,10.33
2019-02-11T06:13:27.421Z,18.87
2019-02-11T06:16:08.031Z,16.23
2019-02-11T06:18:37.633Z,17.60
2019-02-11T06:21:07.561Z,13.50
2019-02-11T06:23:36.500Z,15.30
2019-02-11T06:26:09.588Z,12.23
2019-02-11T06:28:38.773Z,11.47
2019-02-11T06:31:18.198Z,14.57
2019-02-11T06:33:47.151Z,9.73
2019-02-11T06:36:16.124Z,16.57
2019-02-11T06:38:45.278Z,11.10
2019-02-11T06:41:19.728Z,15.90
2019-02-11T06:43:49.523Z,18.03
2019-02-11T06:46:20.249Z,16.47
2019-02-11T06:48:50.091Z,14.00
2019-02-11T06:51:22.117Z,15.83
2019-02-11T06:53:56.561Z,14.03
2019-02-11T06:56:26.521Z,12.57
2019-02-11T06:58:55.874Z,16.27
2019-02-11T07:01:28.953Z,20.53
2019-02-11T07:03:58.561Z,12.17
2019-02-11T07:06:31.046Z,13.50
2019-02-11T07:09:00.638Z,14.27
2019-02-11T07:11:33.587Z,8.93
2019-02-11T07:14:03.217Z,11.33
2019-02-11T07:16:37.335Z,13.30
2019-02-11T07:19:06.947Z,11.33
2019-02-11T07:21:39.357Z,17.60
2019-02-11T07:24:11.334Z,13.03
2019-02-11T07:26:40.596Z,13.83
2019-02-11T07:29:12.472Z,12.67
2019-02-11T07:31:44.268Z,16.07
2019-02-11T07:34:13.469Z,15.80
2019-02-11T07:36:45.478Z,15.93
2019-02-11T07:39:14.437Z,11.00
2019-02-11T07:42:07.927Z,7.70
2019-02-11T07:44:48.178Z,23.77
2019-02-11T07:47:17.762Z,13.57
2019-02-11T07:49:51.010Z,12.53
2019-02-11T07:52:26.652Z,12.23
2019-02-11T07:54:55.292Z,8.57
2019-02-11T07:57:25.346Z,10.10
2019-02-11T08:00:02.000Z,14.10
2019-02-11T08:02:31.636Z,14.80
2019-02-11T08:05:01.847Z,11.10
2019-02-11T08:07:30.786Z,9.50
2019-02-11T08:10:05.655Z,8.43
2019-02-11T08:12:36.151Z,7.43
2019-02-11T08:15:09.669Z,10.33
2019-02-11T08:17:38.602Z,12.97
2019-02-11T08:20:12.947Z,11.37
2019-02-11T08:22:42.102Z,10.07
2019-02-11T08:25:16.273Z,13.73
2019-02-11T08:27:45.678Z,10.00
2019-02-11T08:30:18.131Z,11.80
2019-02-11T08:32:47.083Z,8.97
2019-02-11T08:35:22.347Z,9.07
2019-02-11T08:37:52.578Z,12.23
2019-02-11T08:40:23.648Z,15.20
2019-02-11T08:42:53.669Z,15.03
2019-02-11T08:45:26.390Z,8.77
2019-02-11T08:47:55.981Z,6.17
2019-02-11T08:50:28.115Z,10.73
2019-02-11T08:52:57.855Z,17.40
2019-02-11T08:55:29.136Z,12.83
2019-02-11T08:57:58.456Z,9.27
2019-02-11T09:00:32.264Z,11.20
2019-02-11T09:03:01.852Z,8.83
2019-02-11T09:05:37.604Z,10.47
2019-02-11T09:08:06.535Z,16.37
2019-02-11T09:10:37.210Z,9.37
2019-02-11T09:13:06.336Z,8.70
2019-02-11T09:15:39.240Z,13.47
2019-02-11T09:18:09.480Z,9.20
2019-02-11T09:20:42.172Z,7.03
2019-02-11T09:23:12.090Z,11.47
2019-02-11T09:25:47.798Z,7.60
2019-02-11T09:28:17.462Z,15.43
2019-02-11T09:30:48.442Z,14.00
2019-02-11T09:33:18.461Z,9.93
2019-02-11T09:35:54.113Z,8.90
2019-02-11T09:38:23.129Z,11.87
2019-02-11T09:40:56.294Z,8.90
2019-02-11T09:43:25.926Z,10.97
2019-02-11T09:46:03.548Z,10.17
2019-02-11T09:48:26.897Z,7.20
2019-02-11T09:51:00.734Z,13.60
2019-02-11T09:53:30.318Z,8.23
2019-02-11T09:56:06.358Z,7.17
2019-02-11T09:58:38.117Z,6.57
2019-02-11T10:01:07.840Z,8.17
2019-02-11T10:03:37.805Z,13.23
2019-02-11T10:06:13.635Z,10.37
2019-02-11T10:08:43.545Z,11.73
2019-02-11T10:11:14.201Z,9.77
2019-02-11T10:13:44.414Z,7.33
2019-02-11T10:16:15.173Z,11.40
2019-02-11T10:18:44.786Z,13.30
2019-02-11T10:21:20.136Z,13.30
2019-02-11T10:23:49.858Z,10.40
2019-02-11T10:26:21.789Z,7.63
2019-02-11T10:28:51.894Z,10.77
2019-02-11T10:31:24.577Z,8.10
2019-02-11T10:33:54.154Z,11.33
2019-02-11T10:36:27.966Z,11.03
2019-02-11T10:38:56.934Z,10.23
2019-02-11T10:41:29.195Z,9.73
2019-02-11T10:43:59.169Z,10.60
2019-02-11T10:46:31.874Z,12.50
2019-02-11T10:49:01.479Z,8.67
2019-02-11T10:51:33.888Z,14.23
2019-02-11T10:54:02.834Z,10.20
2019-02-11T10:56:37.087Z,8.10
2019-02-11T10:59:06.493Z,13.97
2019-02-11T11:01:39.366Z,15.40
2019-02-11T11:04:10.565Z,10.17
2019-02-11T11:06:43.358Z,9.23
2019-02-11T11:09:16.502Z,9.83
2019-02-11T11:11:46.563Z,9.63
2019-02-11T11:14:16.210Z,12.27
2019-02-11T11:16:48.273Z,12.43
2019-02-11T11:19:18.154Z,8.23
2019-02-11T11:21:52.282Z,9.73
2019-02-11T11:24:21.874Z,10.27
2019-02-11T11:26:54.649Z,11.37
2019-02-11T11:29:24.342Z,12.30
2019-02-11T11:31:57.011Z,12.23
2019-02-11T11:34:26.629Z,8.37
2019-02-11T11:36:59.081Z,11.07
2019-02-11T11:39:28.665Z,14.57
2019-02-11T11:42:02.276Z,13.27
2019-02-11T11:44:31.890Z,8.90
2019-02-11T11:47:09.945Z,13.67
2019-02-11T11:49:39.592Z,10.60
2019-02-11T11:52:09.332Z,9.30
2019-02-11T11:54:38.997Z,12.00
2019-02-11T11:57:23.364Z,12.57
2019-02-11T11:59:53.291Z,9.27
2019-02-11T12:02:23.467Z,9.33
2019-02-11T12:04:56.338Z,9.73
2019-02-11T12:07:26.028Z,6.33
2019-02-11T12:09:59.491Z,8.40
2019-02-11T12:12:30.274Z,6.83
2019-02-11T12:14:59.941Z,9.43
2019-02-11T12:17:29.563Z,10.57
2019-02-11T12:19:59.590Z,7.90
2019-02-11T12:22:28.801Z,9.27
2019-02-11T12:24:58.401Z,11.23
2019-02-11T12:27:28.344Z,8.87
2019-02-11T12:29:58.978Z,10.20
2019-02-11T12:32:31.397Z,7.67
2019-02-11T12:35:01.305Z,12.80
2019-02-11T12:37:33.690Z,7.57
2019-02-11T12:40:03.306Z,7.83
2019-02-11T12:42:40.529Z,11.10
2019-02-11T12:45:13.049Z,5.73
2019-02-11T12:47:43.400Z,11.67
2019-02-11T12:50:17.006Z,7.37
2019-02-11T12:52:46.777Z,8.47
2019-02-11T12:55:19.113Z,6.40
2019-02-11T12:57:48.794Z,8.63
2019-02-11T13:00:20.509Z,8.47
2019-02-11T13:02:50.595Z,10.53
2019-02-11T13:05:22.933Z,7.80
2019-02-11T13:07:51.820Z,11.57
2019-02-11T13:10:21.629Z,10.40
2019-02-11T13:12:50.975Z,11.63
2019-02-11T13:15:56.823Z,10.47
2019-02-11T13:17:54.898Z,6.57
2019-02-11T13:20:25.109Z,8.60
2019-02-11T13:22:56.931Z,13.23
2019-02-11T13:25:26.901Z,13.83
2019-02-11T13:28:02.798Z,11.97
2019-02-11T13:30:32.521Z,6.57
2019-02-11T13:33:05.081Z,8.40
2019-02-11T13:35:36.535Z,9.00
2019-02-11T13:38:11.966Z,10.60
2019-02-11T13:40:41.905Z,11.97
2019-02-11T13:43:11.637Z,7.47
2019-02-11T13:45:41.870Z,8.80
2019-02-11T13:48:13.930Z,13.13
2019-02-11T13:50:42.899Z,8.13
2019-02-11T13:53:15.331Z,9.37
2019-02-11T13:55:44.951Z,11.23
2019-02-11T13:58:18.427Z,6.67
2019-02-11T14:00:50.220Z,10.20
2019-02-11T14:03:20.623Z,8.43
2019-02-11T14:05:49.907Z,7.90
2019-02-11T14:08:23.168Z,9.07
2019-02-11T14:10:55.008Z,7.77
2019-02-11T14:13:27.610Z,8.17
2019-02-11T14:15:56.570Z,11.80
2019-02-11T14:18:27.044Z,9.47
2019-02-11T14:21:00.124Z,14.07
2019-02-11T14:23:29.591Z,7.43
2019-02-11T14:25:59.330Z,7.53
2019-02-11T14:28:40.950Z,9.67
2019-02-11T14:31:11.131Z,7.33
2019-02-11T14:33:40.925Z,10.10
2019-02-11T14:36:10.713Z,11.17
2019-02-11T14:38:43.158Z,5.13
2019-02-11T14:41:12.797Z,6.33
2019-02-11T14:43:42.835Z,6.03
2019-02-11T14:46:12.452Z,11.17
2019-02-11T14:48:45.172Z,4.80
2019-02-11T14:51:15.346Z,6.33
2019-02-11T14:53:47.924Z,3.80
2019-02-11T14:56:17.590Z,11.87
2019-02-11T14:58:50.468Z,5.27
2019-02-11T15:01:20.123Z,9.60
2019-02-11T15:03:54.666Z,18.37
2019-02-11T15:06:24.359Z,14.73
2019-02-11T15:08:57.038Z,12.90
2019-02-11T15:11:26.743Z,11.20
2019-02-11T15:13:59.193Z,10.63
2019-02-11T15:16:28.564Z,11.47
2019-02-11T15:19:01.026Z,5.73
2019-02-11T15:21:30.644Z,10.63
2019-02-11T15:24:03.484Z,3.83
2019-02-11T15:26:33.114Z,9.67
2019-02-11T15:29:07.393Z,6.47
2019-02-11T15:31:36.898Z,9.57
2019-02-11T15:34:10.896Z,7.27
2019-02-11T15:36:40.574Z,7.30
2019-02-11T15:39:12.540Z,9.73
2019-02-11T15:41:42.979Z,10.23
2019-02-11T15:44:15.142Z,8.27
2019-02-11T15:46:44.717Z,8.57
2019-02-11T15:49:20.941Z,14.13
2019-02-11T15:51:50.715Z,5.00
2019-02-11T15:54:22.578Z,9.53
2019-02-11T15:56:52.270Z,9.03
2019-02-11T15:59:24.423Z,9.60
2019-02-11T16:01:54.406Z,7.67
2019-02-11T16:04:25.479Z,8.23
2019-02-11T16:06:55.262Z,7.20
2019-02-11T16:09:28.463Z,7.40
2019-02-11T16:11:58.105Z,6.30
2019-02-11T16:14:30.010Z,7.13
2019-02-11T16:16:59.666Z,9.87
2019-02-11T16:19:32.862Z,11.40
2019-02-11T16:22:02.175Z,10.37
2019-02-11T16:24:39.167Z,13.53
2019-02-11T16:27:08.902Z,11.30
2019-02-11T16:29:41.698Z,10.07
2019-02-11T16:32:11.542Z,8.07
2019-02-11T16:34:44.070Z,6.53
2019-02-11T16:37:13.917Z,9.93
2019-02-11T16:39:46.050Z,9.83
2019-02-11T16:42:15.009Z,12.57
2019-02-11T16:44:47.024Z,10.37
2019-02-11T16:47:16.907Z,11.70
2019-02-11T16:49:48.942Z,10.83
2019-02-11T16:52:17.897Z,13.13
2019-02-11T16:54:51.486Z,7.80
2019-02-11T16:57:21.260Z,6.20
2019-02-11T17:00:00.819Z,9.23
2019-02-11T17:02:30.571Z,10.17
2019-02-11T17:05:00.617Z,9.47
2019-02-11T17:07:29.584Z,7.63
2019-02-11T17:10:01.390Z,10.43
2019-02-11T17:12:31.026Z,7.63
2019-02-11T17:15:08.136Z,11.40
2019-02-11T17:17:37.399Z,9.50
2019-02-11T17:20:07.741Z,9.87
2019-02-11T17:22:37.865Z,7.80
2019-02-11T17:25:13.878Z,6.87
2019-02-11T17:27:43.795Z,8.10
2019-02-11T17:30:17.310Z,7.80
2019-02-11T17:32:46.573Z,11.40
2019-02-11T17:35:15.595Z,6.40
2019-02-11T17:37:45.449Z,8.50
2019-02-11T17:40:18.664Z,11.40
2019-02-11T17:42:47.604Z,9.93
2019-02-11T17:45:23.780Z,6.07
2019-02-11T17:47:53.626Z,10.17
2019-02-11T17:50:24.770Z,10.00
2019-02-11T17:52:55.164Z,12.13
2019-02-11T17:55:25.854Z,14.77
2019-02-11T17:57:54.784Z,14.03
2019-02-11T18:00:38.336Z,12.33
2019-02-11T18:03:08.216Z,10.67
2019-02-11T18:05:38.913Z,10.03
2019-02-11T18:08:08.593Z,9.23
2019-02-11T18:10:38.458Z,15.43
2019-02-11T18:13:09.078Z,14.47
2019-02-11T18:15:38.249Z,9.83
2019-02-11T18:18:07.834Z,14.03
2019-02-11T18:20:40.276Z,13.63
2019-02-11T18:23:10.185Z,13.83
2019-02-11T18:25:41.711Z,13.13
2019-02-11T18:28:11.363Z,13.03
2019-02-11T18:30:45.060Z,16.13
2019-02-11T18:33:14.878Z,15.20
2019-02-11T18:35:46.259Z,16.57
2019-02-11T18:38:15.483Z,11.10
2019-02-11T18:40:48.782Z,14.23
2019-02-11T18:43:18.399Z,16.10
2019-02-11T18:45:51.166Z,17.33
2019-02-11T18:48:20.406Z,16.83
2019-02-11T18:50:53.548Z,17.20
2019-02-11T18:53:22.610Z,18.60
2019-02-11T18:55:58.049Z,17.77
2019-02-11T18:58:27.673Z,14.07
2019-02-11T19:01:00.430Z,14.53
2019-02-11T19:03:30.311Z,14.67
2019-02-11T19:06:03.608Z,12.87
2019-02-11T19:08:33.328Z,13.60
2019-02-11T19:11:07.865Z,17.20
2019-02-11T19:13:37.815Z,17.63
2019-02-11T19:16:13.746Z,15.93
2019-02-11T19:18:44.823Z,14.17
2019-02-11T19:21:14.580Z,17.93
2019-02-11T19:26:14.275Z,15.87
2019-02-11T19:28:44.010Z,15.20
2019-02-11T19:31:18.576Z,14.57
2019-02-11T19:33:48.171Z,15.73
2019-02-11T19:36:20.842Z,17.93
2019-02-11T19:38:50.583Z,12.77
2019-02-11T19:41:23.152Z,18.00
2019-02-11T19:43:52.748Z,16.27
2019-02-11T19:46:26.319Z,22.40
2019-02-11T19:48:55.311Z,18.43
2019-02-11T19:51:32.107Z,23.57
2019-02-11T19:54:01.278Z,16.37
2019-02-11T19:56:30.884Z,19.93
2019-02-11T19:59:00.542Z,14.93
2019-02-11T20:01:32.827Z,18.23
2019-02-11T20:04:07.247Z,20.50
2019-02-11T20:06:38.779Z,17.90
2019-02-11T20:09:08.770Z,17.57
2019-02-11T20:11:38.552Z,18.07
2019-02-11T20:14:08.172Z,20.60
2019-02-11T20:16:40.537Z,20.13
2019-02-11T20:19:09.743Z,20.43
2019-02-11T20:21:45.201Z,15.97
2019-02-11T20:24:17.448Z,19.47
2019-02-11T20:26:47.344Z,22.07
2019-02-11T20:29:19.751Z,22.23
2019-02-11T20:31:48.956Z,25.87
2019-02-11T20:34:18.562Z,20.43
2019-02-11T20:36:51.842Z,25.53
2019-02-11T20:39:21.442Z,19.30
2019-02-11T20:41:54.785Z,24.40
2019-02-11T20:44:24.446Z,24.73
2019-02-11T20:46:57.890Z,20.53
2019-02-11T20:49:29.876Z,25.07
2019-02-11T20:52:02.554Z,18.40
2019-02-11T20:54:32.702Z,15.33
2019-02-11T20:57:04.918Z,18.40
2019-02-11T20:59:35.814Z,25.67
2019-02-11T21:02:07.797Z,26.23
2019-02-11T21:04:37.729Z,23.07
2019-02-11T21:07:11.748Z,17.97
2019-02-11T21:09:41.498Z,21.77
2019-02-11T21:12:14.278Z,13.50
2019-02-11T21:14:44.165Z,16.53
2019-02-11T21:17:16.534Z,19.63
2019-02-11T21:19:46.572Z,15.43
2019-02-11T21:22:18.308Z,17.53
2019-02-11T21:24:47.997Z,14.17
2019-02-11T21:27:21.434Z,18.43
2019-02-11T21:29:51.047Z,14.80
2019-02-11T21:32:23.487Z,20.03
2019-02-11T21:34:53.637Z,15.60
2019-02-11T21:37:26.271Z,22.17
2019-02-11T21:39:55.206Z,15.03
2019-02-11T21:42:29.770Z,17.77
2019-02-11T21:44:59.554Z,18.47
2019-02-11T21:47:30.123Z,15.93
2019-02-11T21:50:00.216Z,22.17
2019-02-11T21:52:35.108Z,16.80
2019-02-11T21:55:07.876Z,16.63
2019-02-11T21:57:39.993Z,18.23
2019-02-11T22:00:12.160Z,17.77
2019-02-11T22:02:44.022Z,12.57
2019-02-11T22:05:14.331Z,23.20
2019-02-11T22:07:43.340Z,19.30
2019-02-11T22:10:14.560Z,20.63
2019-02-11T22:12:44.492Z,20.93
2019-02-11T22:15:14.974Z,24.13
2019-02-11T22:17:46.638Z,24.90
2019-02-11T22:20:17.767Z,10.93
2019-02-11T22:22:50.511Z,15.30
2019-02-11T22:25:20.427Z,21.50
2019-02-11T22:27:53.382Z,19.53
2019-02-11T22:30:23.018Z,15.47
2019-02-11T22:32:55.302Z,17.20
2019-02-11T22:35:25.179Z,21.07
2019-02-11T22:37:56.938Z,25.90
2019-02-11T22:40:28.325Z,21.10
2019-02-11T22:43:00.978Z,17.53
2019-02-11T22:45:30.583Z,22.67
2019-02-11T22:48:02.915Z,26.60
2019-02-11T22:50:32.790Z,18.17
2019-02-11T22:53:08.601Z,21.90
2019-02-11T22:55:38.417Z,23.00
2019-02-11T22:58:12.531Z,17.93
2019-02-11T23:00:53.013Z,21.03
2019-02-11T23:03:22.846Z,18.27
2019-02-11T23:05:52.443Z,21.37
2019-02-11T23:08:21.394Z,26.43
2019-02-11T23:10:50.973Z,23.53
2019-02-11T23:13:20.562Z,23.97
2019-02-11T23:15:50.438Z,25.47
2019-02-11T23:18:22.858Z,26.77
2019-02-11T23:20:52.436Z,28.60
2019-02-11T23:23:24.554Z,17.00
2019-02-11T23:25:54.135Z,21.60
2019-02-11T23:28:26.411Z,17.13
2019-02-11T23:30:55.370Z,19.23
2019-02-11T23:33:31.047Z,27.47
2019-02-11T23:36:00.928Z,23.37
2019-02-11T23:38:30.803Z,28.17
2019-02-11T23:41:00.396Z,26.93
2019-02-11T23:43:34.527Z,19.83
2019-02-11T23:46:04.110Z,22.83
2019-02-11T23:48:39.514Z,26.30
2019-02-11T23:51:08.767Z,23.27
2019-02-11T23:53:40.545Z,27.00
2019-02-11T23:56:10.159Z,34.70
2019-02-11T23:58:41.537Z,25.17
